createdAt,value
2022-12-20T00:00:15.327Z,14.50
2022-12-20T00:03:08.925Z,14.20
2022-12-20T00:05:43.174Z,15.20
2022-12-20T00:08:16.652Z,16.80
2022-12-20T00:10:50.141Z,12.50
2022-12-20T00:13:23.620Z,18.40
2022-12-20T00:16:17.132Z,20.10
2022-12-20T00:18:53.434Z,20.10
2022-12-20T00:21:27.379Z,17.00
2022-12-20T00:24:01.738Z,22.70
2022-12-20T00:26:35.909Z,20.10
2022-12-20T00:29:09.910Z,18.10
2022-12-20T00:31:43.464Z,19.80
2022-12-20T00:34:17.032Z,17.50
2022-12-20T00:36:50.447Z,23.20
2022-12-20T00:39:24.281Z,20.40
2022-12-20T00:41:57.542Z,20.90
2022-12-20T00:44:30.731Z,21.70
2022-12-20T00:47:03.793Z,21.30
2022-12-20T00:49:37.185Z,19.80
2022-12-20T00:52:10.513Z,10.30
2022-12-20T00:54:43.753Z,14.90
2022-12-20T00:57:16.898Z,15.90
2022-12-20T00:59:49.872Z,16.20
2022-12-20T01:02:23.302Z,15.60
2022-12-20T01:04:56.768Z,15.50
2022-12-20T01:07:29.775Z,11.30
2022-12-20T01:10:03.071Z,16.30
2022-12-20T01:12:36.137Z,18.60
2022-12-20T01:15:10.459Z,19.70
2022-12-20T01:17:43.684Z,20.20
2022-12-20T01:20:17.290Z,19.20
2022-12-20T01:22:51.337Z,19.90
2022-12-20T01:25:24.811Z,18.90
2022-12-20T01:27:58.719Z,18.30
2022-12-20T01:30:32.092Z,19.10
2022-12-20T01:33:05.316Z,21.80
2022-12-20T01:35:38.347Z,17.40
2022-12-20T01:38:11.666Z,19.80
2022-12-20T01:40:46.115Z,19.10
2022-12-20T01:43:21.571Z,19.90
2022-12-20T01:45:54.448Z,18.90
2022-12-20T01:48:29.098Z,13.80
2022-12-20T01:51:02.239Z,16.40
2022-12-20T01:53:35.636Z,18.30
2022-12-20T01:56:11.055Z,19.30
2022-12-20T01:58:46.076Z,18.20
2022-12-20T02:01:19.588Z,15.00
2022-12-20T02:03:54.015Z,18.40
2022-12-20T02:06:29.252Z,19.10
2022-12-20T02:09:05.387Z,16.80
2022-12-20T02:12:07.876Z,15.90
2022-12-20T02:15:02.469Z,18.70
2022-12-20T02:18:10.647Z,15.40
2022-12-20T02:21:24.307Z,9.70
2022-12-20T02:24:40.545Z,13.00
2022-12-20T02:27:50.650Z,9.60
2022-12-20T02:30:27.041Z,13.10
2022-12-20T02:33:16.404Z,14.30
2022-12-20T02:35:49.804Z,13.60
2022-12-20T02:38:37.185Z,15.10
2022-12-20T02:41:35.524Z,14.40
2022-12-20T02:44:43.829Z,14.30
2022-12-20T02:47:25.322Z,18.30
2022-12-20T02:50:00.484Z,18.30
2022-12-20T02:52:48.230Z,16.70
2022-12-20T02:55:30.612Z,16.00
2022-12-20T02:58:15.075Z,15.20
2022-12-20T03:00:52.942Z,16.60
2022-12-20T03:03:26.914Z,15.90
2022-12-20T03:08:51.556Z,10.10
2022-12-20T03:11:26.541Z,12.10
2022-12-20T03:14:01.096Z,14.40
2022-12-20T03:16:34.466Z,14.00
2022-12-20T03:19:07.456Z,12.10
2022-12-20T03:21:40.402Z,12.40
2022-12-20T03:24:14.092Z,12.90
2022-12-20T03:26:47.902Z,11.00
2022-12-20T03:29:22.725Z,16.70
2022-12-20T03:31:56.441Z,15.50
2022-12-20T03:34:34.048Z,13.70
2022-12-20T03:37:16.991Z,17.30
2022-12-20T03:39:51.706Z,16.90
2022-12-20T03:42:26.427Z,16.20
2022-12-20T03:45:00.072Z,16.00
2022-12-20T03:47:34.598Z,15.80
2022-12-20T03:50:09.356Z,15.30
2022-12-20T03:52:43.871Z,16.60
2022-12-20T03:55:21.434Z,13.10
2022-12-20T03:57:55.819Z,14.80
2022-12-20T04:00:43.810Z,15.90
2022-12-20T04:03:38.716Z,15.40
2022-12-20T04:06:12.167Z,12.90
2022-12-20T04:08:48.778Z,11.70
2022-12-20T04:11:29.483Z,12.70
2022-12-20T04:14:14.973Z,9.20
2022-12-20T04:16:50.215Z,10.30
2022-12-20T04:19:26.076Z,11.20
2022-12-20T04:22:04.602Z,11.20
2022-12-20T04:24:52.810Z,9.90
2022-12-20T04:27:31.186Z,11.60
2022-12-20T04:30:07.992Z,12.00
2022-12-20T04:32:41.009Z,13.40
2022-12-20T04:35:14.003Z,13.00
2022-12-20T04:37:48.554Z,12.80
2022-12-20T04:40:28.478Z,13.20
2022-12-20T04:43:04.934Z,14.00
2022-12-20T04:45:43.951Z,11.50
2022-12-20T04:48:54.743Z,13.40
2022-12-20T04:51:13.357Z,9.50
2022-12-20T04:53:50.311Z,12.70
2022-12-20T04:56:36.399Z,14.20
2022-12-20T04:59:15.964Z,12.80
2022-12-20T05:01:51.208Z,11.10
2022-12-20T05:04:40.234Z,13.30
2022-12-20T05:07:13.775Z,9.20
2022-12-20T05:09:57.728Z,11.50
2022-12-20T05:12:37.538Z,13.60
2022-12-20T05:15:17.637Z,9.70
2022-12-20T05:17:51.320Z,5.30
2022-12-20T05:20:24.500Z,8.60
2022-12-20T05:23:20.363Z,11.30
2022-12-20T05:26:16.347Z,10.10
2022-12-20T05:28:50.170Z,8.90
2022-12-20T05:31:23.503Z,12.00
2022-12-20T05:33:56.980Z,12.10
2022-12-20T05:36:32.569Z,11.90
2022-12-20T05:39:06.577Z,13.80
2022-12-20T05:41:42.001Z,13.20
2022-12-20T05:44:20.737Z,13.80
2022-12-20T05:46:54.759Z,13.20
2022-12-20T05:49:42.974Z,12.80
2022-12-20T05:52:33.786Z,8.60
2022-12-20T05:55:11.747Z,13.00
2022-12-20T05:57:45.066Z,12.70
2022-12-20T06:00:19.111Z,11.20
2022-12-20T06:02:54.032Z,8.40
2022-12-20T06:05:27.706Z,12.30
2022-12-20T06:08:02.217Z,11.70
2022-12-20T06:10:36.650Z,9.00
2022-12-20T06:13:10.230Z,7.60
2022-12-20T06:15:43.382Z,13.00
2022-12-20T06:18:17.343Z,15.40
2022-12-20T06:20:56.353Z,12.70
2022-12-20T06:23:30.683Z,9.60
2022-12-20T06:26:14.068Z,11.40
2022-12-20T06:28:57.510Z,12.90
2022-12-20T06:31:39.168Z,9.40
2022-12-20T06:34:14.713Z,8.60
2022-12-20T06:36:48.539Z,12.30
2022-12-20T06:39:26.704Z,13.70
2022-12-20T06:42:10.068Z,12.00
2022-12-20T06:44:45.727Z,11.00
2022-12-20T06:47:18.863Z,9.50
2022-12-20T06:49:52.274Z,13.00
2022-12-20T06:52:28.882Z,13.90
2022-12-20T06:55:02.402Z,15.00
2022-12-20T06:57:37.626Z,15.10
2022-12-20T07:00:13.265Z,13.30
2022-12-20T07:02:46.555Z,12.80
2022-12-20T07:05:20.078Z,13.60
2022-12-20T07:07:53.802Z,15.70
2022-12-20T07:10:28.335Z,13.30
2022-12-20T07:13:02.480Z,13.40
2022-12-20T07:15:36.416Z,14.50
2022-12-20T07:18:11.499Z,11.50
2022-12-20T07:20:45.589Z,10.30
2022-12-20T07:23:19.662Z,6.40
2022-12-20T07:26:01.517Z,10.20
2022-12-20T07:28:35.277Z,9.90
2022-12-20T07:31:08.768Z,11.00
2022-12-20T07:33:43.374Z,10.60
2022-12-20T07:36:18.690Z,9.80
2022-12-20T07:38:52.716Z,11.80
2022-12-20T07:41:26.384Z,11.90
2022-12-20T07:44:01.206Z,12.40
2022-12-20T07:46:34.790Z,10.80
2022-12-20T07:49:08.105Z,11.10
2022-12-20T07:51:58.306Z,11.90
2022-12-20T07:54:35.542Z,11.80
2022-12-20T07:57:25.978Z,11.90
2022-12-20T08:00:02.592Z,12.80
2022-12-20T08:03:01.477Z,14.50
2022-12-20T08:05:37.143Z,12.60
2022-12-20T08:08:11.620Z,11.80
2022-12-20T08:10:46.002Z,11.70
2022-12-20T08:13:26.188Z,12.20
2022-12-20T08:16:04.322Z,13.30
2022-12-20T08:18:37.676Z,10.70
2022-12-20T08:21:16.937Z,14.00
2022-12-20T08:23:55.459Z,10.80
2022-12-20T08:26:28.952Z,13.60
2022-12-20T08:29:02.591Z,13.50
2022-12-20T08:31:36.120Z,14.40
2022-12-20T08:34:12.890Z,12.70
2022-12-20T08:36:46.057Z,11.00
2022-12-20T08:39:19.529Z,9.90
2022-12-20T08:41:52.505Z,10.40
2022-12-20T08:44:25.948Z,10.10
2022-12-20T08:46:58.701Z,12.00
2022-12-20T08:49:31.355Z,9.10
2022-12-20T08:52:05.183Z,12.70
2022-12-20T08:54:38.569Z,12.30
2022-12-20T08:57:12.378Z,8.60
2022-12-20T08:59:45.836Z,13.10
2022-12-20T09:02:19.211Z,11.50
2022-12-20T09:04:54.833Z,11.80
2022-12-20T09:07:27.610Z,13.00
2022-12-20T09:10:02.068Z,12.40
2022-12-20T09:12:38.446Z,12.50
2022-12-20T09:15:12.708Z,7.20
2022-12-20T09:17:47.891Z,9.00
2022-12-20T09:20:21.211Z,7.20
2022-12-20T09:22:53.968Z,8.00
2022-12-20T09:25:26.888Z,8.20
2022-12-20T09:28:00.246Z,8.50
2022-12-20T09:30:33.794Z,5.10
2022-12-20T09:33:10.254Z,8.10
2022-12-20T09:35:51.293Z,8.00
2022-12-20T09:38:25.204Z,10.30
2022-12-20T09:41:03.126Z,6.50
2022-12-20T09:43:37.880Z,7.60
2022-12-20T09:46:18.962Z,8.10
2022-12-20T09:48:52.139Z,5.40
2022-12-20T09:51:42.356Z,7.50
2022-12-20T09:54:45.693Z,7.90
2022-12-20T09:58:17.198Z,7.70
2022-12-20T10:00:54.598Z,7.40
2022-12-20T10:03:38.296Z,7.70
2022-12-20T10:06:47.189Z,6.20
2022-12-20T10:09:50.430Z,8.40
2022-12-20T10:12:46.120Z,6.70
2022-12-20T10:15:23.249Z,5.40
2022-12-20T10:18:31.431Z,6.20
2022-12-20T10:21:13.981Z,5.80
2022-12-20T10:24:05.935Z,6.80
2022-12-20T10:26:39.413Z,8.30
2022-12-20T10:29:13.260Z,7.20
2022-12-20T10:31:46.438Z,7.10
2022-12-20T10:34:19.726Z,8.60
2022-12-20T10:37:12.043Z,8.20
2022-12-20T10:39:52.077Z,5.30
2022-12-20T10:42:38.982Z,5.90
2022-12-20T10:45:43.179Z,8.50
2022-12-20T10:48:44.527Z,7.50
2022-12-20T10:51:24.518Z,8.20
2022-12-20T10:54:22.483Z,3.90
2022-12-20T10:57:06.727Z,8.70
2022-12-20T10:59:51.008Z,5.90
2022-12-20T11:02:42.295Z,5.20
2022-12-20T11:05:17.884Z,7.90
2022-12-20T11:11:25.495Z,5.80
2022-12-20T11:14:18.071Z,8.80
2022-12-20T11:16:54.502Z,5.60
2022-12-20T11:19:32.599Z,5.60
2022-12-20T11:22:28.808Z,7.60
2022-12-20T11:25:10.500Z,6.20
2022-12-20T11:27:57.848Z,8.60
2022-12-20T11:31:00.787Z,6.70
2022-12-20T11:33:52.843Z,8.70
2022-12-20T11:39:32.526Z,7.10
2022-12-20T11:42:15.142Z,5.50
2022-12-20T11:45:11.692Z,5.90
2022-12-20T11:48:20.109Z,7.60
2022-12-20T11:51:16.740Z,8.70
2022-12-20T11:54:14.951Z,9.30
2022-12-20T11:56:52.753Z,7.40
2022-12-20T12:00:01.063Z,8.00
2022-12-20T12:02:58.350Z,7.40
2022-12-20T12:05:55.007Z,9.20
2022-12-20T12:08:50.501Z,8.30
2022-12-20T12:12:05.873Z,9.20
2022-12-20T12:15:11.175Z,8.00
2022-12-20T12:18:02.907Z,5.90
2022-12-20T12:20:39.303Z,8.00
2022-12-20T12:23:46.747Z,7.90
2022-12-20T12:26:33.557Z,6.80
2022-12-20T12:29:26.183Z,9.60
2022-12-20T12:32:27.057Z,11.70
2022-12-20T12:35:57.200Z,7.90
2022-12-20T12:38:58.327Z,8.80
2022-12-20T12:41:56.043Z,9.40
2022-12-20T12:44:49.025Z,9.00
2022-12-20T12:47:42.289Z,6.90
2022-12-20T12:50:37.730Z,8.90
2022-12-20T12:53:27.505Z,8.30
2022-12-20T12:56:19.320Z,9.30
2022-12-20T12:59:22.650Z,9.80
2022-12-20T13:02:22.004Z,10.60
2022-12-20T13:05:20.765Z,12.10
2022-12-20T13:08:01.318Z,10.30
2022-12-20T13:10:35.376Z,9.50
2022-12-20T13:13:33.628Z,10.30
2022-12-20T13:16:15.848Z,11.30
2022-12-20T13:19:07.142Z,11.40
2022-12-20T13:21:48.910Z,10.80
2022-12-20T13:24:46.188Z,10.70
2022-12-20T13:27:46.013Z,11.30
2022-12-20T13:30:33.008Z,8.10
2022-12-20T13:33:42.095Z,10.60
2022-12-20T13:36:17.431Z,8.90
2022-12-20T13:39:03.506Z,8.10
2022-12-20T13:41:50.267Z,10.70
2022-12-20T13:44:35.158Z,12.20
2022-12-20T13:47:30.599Z,12.50
2022-12-20T13:50:22.878Z,7.10
2022-12-20T13:58:29.992Z,8.90
2022-12-20T14:01:14.174Z,8.20
2022-12-20T14:03:49.766Z,10.50
2022-12-20T14:06:27.146Z,10.20
2022-12-20T14:09:07.868Z,11.10
2022-12-20T14:11:56.981Z,11.70
2022-12-20T14:14:30.523Z,12.30
2022-12-20T14:17:32.917Z,13.40
2022-12-20T14:20:12.426Z,12.80
2022-12-20T14:23:05.945Z,14.60
2022-12-20T14:25:53.126Z,13.20
2022-12-20T14:28:49.155Z,12.60
2022-12-20T14:31:40.241Z,13.90
2022-12-20T14:34:13.767Z,12.50
2022-12-20T14:36:49.378Z,16.90
2022-12-20T14:39:32.377Z,14.20
2022-12-20T14:42:10.717Z,13.80
2022-12-20T14:44:48.877Z,12.10
2022-12-20T14:47:29.540Z,13.00
2022-12-20T14:50:05.330Z,16.40
2022-12-20T14:52:44.927Z,13.80
2022-12-20T14:55:25.742Z,15.50
2022-12-20T14:58:00.046Z,15.10
2022-12-20T15:00:35.263Z,15.00
2022-12-20T15:03:21.547Z,13.20
2022-12-20T15:06:27.652Z,13.90
2022-12-20T15:09:06.255Z,13.50
2022-12-20T15:11:59.810Z,9.40
2022-12-20T15:14:41.307Z,11.30
2022-12-20T15:17:16.975Z,15.80
2022-12-20T15:19:55.960Z,15.80
2022-12-20T15:22:29.741Z,17.10
2022-12-20T15:25:02.844Z,12.90
2022-12-20T15:27:35.931Z,14.50
2022-12-20T15:30:17.266Z,15.10
2022-12-20T15:32:55.600Z,14.70
2022-12-20T15:35:30.289Z,14.90
2022-12-20T15:38:03.754Z,14.90
2022-12-20T15:40:38.518Z,16.60
2022-12-20T15:43:19.232Z,15.70
2022-12-20T15:45:57.171Z,15.30
2022-12-20T15:48:32.206Z,15.60
2022-12-20T15:51:13.896Z,17.20
2022-12-20T15:53:47.974Z,15.40
2022-12-20T15:56:25.344Z,17.80
2022-12-20T15:58:58.744Z,20.40
2022-12-20T16:01:42.274Z,17.80
2022-12-20T16:04:31.408Z,16.00
2022-12-20T16:07:10.536Z,21.30
2022-12-20T16:09:47.385Z,21.20
2022-12-20T16:12:34.165Z,22.10
2022-12-20T16:15:30.609Z,21.80
2022-12-20T16:18:04.139Z,23.40
2022-12-20T16:20:40.211Z,23.20
2022-12-20T16:23:36.370Z,20.70
2022-12-20T16:26:23.818Z,22.10
2022-12-20T16:29:10.726Z,22.30
2022-12-20T16:31:47.324Z,22.00
2022-12-20T16:34:22.350Z,20.60
2022-12-20T16:36:55.436Z,23.70
2022-12-20T16:39:29.024Z,17.00
2022-12-20T16:42:02.702Z,18.30
2022-12-20T16:44:40.910Z,19.00
2022-12-20T16:47:34.451Z,17.60
2022-12-20T16:50:13.380Z,17.90
2022-12-20T16:52:55.237Z,18.00
2022-12-20T16:55:40.148Z,19.70
2022-12-20T16:58:14.279Z,15.50
2022-12-20T17:00:59.633Z,9.10
2022-12-20T17:03:36.627Z,18.00
2022-12-20T17:06:12.687Z,18.00
2022-12-20T17:11:44.377Z,19.70
2022-12-20T17:14:28.107Z,20.30
2022-12-20T17:17:13.355Z,19.00
2022-12-20T17:19:47.810Z,19.40
2022-12-20T17:25:30.290Z,21.40
2022-12-20T17:28:05.519Z,20.80
2022-12-20T17:30:46.441Z,17.80
2022-12-20T17:36:17.183Z,21.80
2022-12-20T17:38:50.254Z,19.90
2022-12-20T17:41:32.496Z,20.00
2022-12-20T17:44:26.124Z,23.30
2022-12-20T17:47:00.120Z,22.50
2022-12-20T17:49:37.802Z,22.00
2022-12-20T17:52:23.889Z,19.10
2022-12-20T17:54:57.738Z,17.70
2022-12-20T17:57:42.017Z,20.40
2022-12-20T18:00:38.102Z,18.80
2022-12-20T18:03:53.413Z,19.10
2022-12-20T18:06:13.342Z,21.10
2022-12-20T18:08:57.364Z,22.60
2022-12-20T18:11:40.217Z,19.40
2022-12-20T18:14:20.464Z,20.80
2022-12-20T18:17:04.918Z,18.50
2022-12-20T18:20:09.887Z,17.50
2022-12-20T18:22:59.094Z,20.60
2022-12-20T18:25:40.806Z,19.40
2022-12-20T18:28:28.893Z,19.40
2022-12-20T18:31:17.839Z,20.70
2022-12-20T18:34:05.575Z,18.70
2022-12-20T18:36:43.468Z,19.60
2022-12-20T18:39:18.679Z,21.40
2022-12-20T18:42:03.449Z,20.20
2022-12-20T18:44:37.380Z,20.50
2022-12-20T18:47:17.740Z,20.00
2022-12-20T18:50:08.155Z,19.60
2022-12-20T18:52:45.888Z,20.90
2022-12-20T18:55:20.746Z,18.20
2022-12-20T18:57:54.905Z,19.90
2022-12-20T19:00:33.527Z,16.60
2022-12-20T19:03:07.376Z,16.40
2022-12-20T19:05:57.512Z,15.60
2022-12-20T19:08:36.992Z,17.60
2022-12-20T19:11:12.015Z,18.40
2022-12-20T19:13:45.250Z,18.00
2022-12-20T19:16:26.271Z,18.90
2022-12-20T19:19:03.120Z,18.80
2022-12-20T19:21:38.326Z,16.20
2022-12-20T19:24:14.119Z,17.80
2022-12-20T19:26:48.081Z,18.40
2022-12-20T19:29:25.032Z,16.20
2022-12-20T19:31:57.888Z,17.10
2022-12-20T19:34:31.953Z,17.60
2022-12-20T19:37:05.800Z,15.80
2022-12-20T19:39:49.204Z,18.10
2022-12-20T19:42:26.509Z,16.70
2022-12-20T19:45:00.330Z,18.50
2022-12-20T19:47:37.999Z,16.70
2022-12-20T19:50:23.904Z,16.70
2022-12-20T19:53:05.617Z,17.80
2022-12-20T19:55:43.672Z,18.50
2022-12-20T19:58:25.163Z,18.20
2022-12-20T20:01:10.281Z,17.70
2022-12-20T20:03:52.566Z,16.90
2022-12-20T20:06:26.566Z,16.30
2022-12-20T20:09:06.746Z,18.30
2022-12-20T20:11:44.288Z,18.50
2022-12-20T20:14:21.235Z,15.30
2022-12-20T20:17:00.402Z,15.70
2022-12-20T20:19:35.081Z,15.50
2022-12-20T20:22:11.756Z,14.30
2022-12-20T20:24:47.049Z,13.50
2022-12-20T20:27:20.520Z,14.70
2022-12-20T20:29:56.705Z,14.70
2022-12-20T20:32:30.987Z,14.30
2022-12-20T20:35:20.629Z,16.60
2022-12-20T20:37:54.792Z,16.10
2022-12-20T20:40:36.901Z,16.80
2022-12-20T20:43:11.929Z,16.60
2022-12-20T20:45:51.049Z,16.80
2022-12-20T20:48:24.299Z,16.90
2022-12-20T20:50:57.433Z,15.40
2022-12-20T20:53:36.330Z,17.60
2022-12-20T20:56:13.636Z,18.50
2022-12-20T20:58:47.704Z,16.80
2022-12-20T21:04:24.720Z,13.80
2022-12-20T21:06:58.682Z,16.10
2022-12-20T21:09:38.924Z,15.50
2022-12-20T21:12:13.726Z,15.90
2022-12-20T21:15:20.688Z,16.40
2022-12-20T21:17:51.056Z,14.80
2022-12-20T21:20:28.661Z,17.10
2022-12-20T21:23:02.489Z,17.10
2022-12-20T21:25:43.325Z,17.10
2022-12-20T21:28:22.358Z,16.10
2022-12-20T21:31:11.701Z,15.10
2022-12-20T21:34:01.009Z,14.90
2022-12-20T21:36:34.801Z,16.40
2022-12-20T21:39:13.312Z,15.60
2022-12-20T21:42:01.509Z,14.70
2022-12-20T21:44:40.828Z,14.80
2022-12-20T21:47:15.417Z,12.40
2022-12-20T21:49:49.517Z,11.50
2022-12-20T21:52:33.875Z,12.20
2022-12-20T21:55:21.954Z,12.40
2022-12-20T21:57:58.523Z,14.30
2022-12-20T22:00:36.026Z,13.70
2022-12-20T22:03:38.761Z,14.40
2022-12-20T22:06:28.098Z,14.40
2022-12-20T22:09:12.659Z,14.20
2022-12-20T22:11:51.490Z,13.40
2022-12-20T22:14:25.071Z,12.40
2022-12-20T22:16:58.895Z,13.30
2022-12-20T22:19:32.877Z,15.70
2022-12-20T22:22:09.968Z,16.50
2022-12-20T22:25:02.798Z,15.80
2022-12-20T22:27:45.313Z,14.20
2022-12-20T22:30:27.662Z,13.30
2022-12-20T22:33:13.746Z,14.40
2022-12-20T22:35:53.368Z,13.10
2022-12-20T22:38:26.650Z,12.60
2022-12-20T22:41:21.947Z,12.90
2022-12-20T22:43:57.859Z,13.10
2022-12-20T22:46:41.032Z,12.90
2022-12-20T22:49:20.516Z,13.60
2022-12-20T22:52:07.247Z,12.90
2022-12-20T22:57:18.924Z,12.00
2022-12-20T23:00:01.566Z,12.60
2022-12-20T23:02:34.583Z,11.80
2022-12-20T23:05:12.611Z,11.80
2022-12-20T23:07:49.402Z,11.20
2022-12-20T23:10:52.295Z,11.30
2022-12-20T23:14:04.082Z,11.50
2022-12-20T23:16:39.646Z,17.10
2022-12-20T23:19:17.579Z,10.20
2022-12-20T23:22:10.127Z,11.70
2022-12-20T23:24:44.434Z,11.60
2022-12-20T23:27:18.148Z,12.20
2022-12-20T23:30:00.925Z,13.20
2022-12-20T23:32:33.867Z,13.20
2022-12-20T23:35:12.424Z,12.80
2022-12-20T23:40:46.571Z,12.50
2022-12-20T23:43:42.725Z,11.90
2022-12-20T23:46:19.188Z,12.20
2022-12-20T23:48:54.077Z,13.00
2022-12-20T23:51:27.138Z,12.00
2022-12-20T23:54:04.356Z,12.00
2022-12-20T23:56:38.135Z,12.50
2022-12-20T23:59:11.688Z,13.70
